createdAt,value
2018-07-17T00:00:10.918Z,86
2018-07-17T00:05:11.088Z,86
2018-07-17T00:10:11.424Z,86
2018-07-17T00:15:11.083Z,86
2018-07-17T00:20:11.640Z,86
2018-07-17T00:25:11.258Z,86
2018-07-17T00:30:10.762Z,86
2018-07-17T00:35:11.319Z,87
2018-07-17T00:40:10.791Z,87
2018-07-17T00:45:11.266Z,87
2018-07-17T00:50:10.768Z,87
2018-07-17T00:55:11.215Z,88
2018-07-17T01:00:11.716Z,88
2018-07-17T01:05:11.290Z,88
2018-07-17T01:10:11.071Z,88
2018-07-17T01:15:11.770Z,88
2018-07-17T01:20:11.582Z,88
2018-07-17T01:25:11.011Z,89
2018-07-17T01:30:11.450Z,89
2018-07-17T01:35:11.516Z,89
2018-07-17T01:40:11.080Z,89
2018-07-17T01:45:11.555Z,89
2018-07-17T01:50:11.211Z,89
2018-07-17T01:55:11.721Z,89
2018-07-17T02:00:11.219Z,89
2018-07-17T02:05:11.295Z,89
2018-07-17T02:10:11.778Z,89
2018-07-17T02:15:11.371Z,90
2018-07-17T02:20:10.919Z,90
2018-07-17T02:25:11.372Z,90
2018-07-17T02:30:11.002Z,90
2018-07-17T02:35:11.042Z,90
2018-07-17T02:40:11.649Z,90
2018-07-17T02:45:11.105Z,90
2018-07-17T02:50:11.840Z,90
2018-07-17T02:55:11.617Z,90
2018-07-17T03:00:11.235Z,90
2018-07-17T03:05:11.809Z,90
2018-07-17T03:10:11.149Z,90
2018-07-17T03:15:11.734Z,91
2018-07-17T03:20:11.380Z,91
2018-07-17T03:25:11.895Z,91
2018-07-17T03:30:11.417Z,91
2018-07-17T03:35:10.968Z,91
2018-07-17T03:40:11.531Z,91
2018-07-17T03:45:11.052Z,91
2018-07-17T03:50:11.566Z,91
2018-07-17T03:55:11.192Z,91
2018-07-17T04:00:11.730Z,91
2018-07-17T04:05:11.415Z,91
2018-07-17T04:10:11.861Z,91
2018-07-17T04:15:11.519Z,92
2018-07-17T04:20:11.062Z,92
2018-07-17T04:25:11.666Z,92
2018-07-17T04:30:11.268Z,92
2018-07-17T04:35:16.780Z,93
2018-07-17T04:40:11.332Z,93
2018-07-17T04:45:11.888Z,94
2018-07-17T04:50:11.426Z,94
2018-07-17T04:55:11.895Z,94
2018-07-17T05:00:11.486Z,94
2018-07-17T05:05:11.726Z,95
2018-07-17T05:10:11.133Z,95
2018-07-17T05:15:11.625Z,96
2018-07-17T05:20:11.196Z,96
2018-07-17T05:25:11.771Z,96
2018-07-17T05:30:11.355Z,96
2018-07-17T05:35:11.996Z,97
2018-07-17T05:40:11.490Z,97
2018-07-17T05:45:11.081Z,97
2018-07-17T05:50:11.672Z,97
2018-07-17T05:55:11.181Z,98
2018-07-17T06:00:11.208Z,98
2018-07-17T06:05:12.124Z,98
2018-07-17T06:10:11.439Z,98
2018-07-17T06:15:12.043Z,98
2018-07-17T06:20:12.302Z,98
2018-07-17T06:25:11.823Z,99
2018-07-17T06:30:11.367Z,99
2018-07-17T06:35:12.024Z,99
2018-07-17T06:40:11.619Z,99
2018-07-17T06:45:11.404Z,99
2018-07-17T06:50:12.033Z,99
2018-07-17T06:55:12.202Z,98
2018-07-17T07:00:11.681Z,98
2018-07-17T07:05:11.285Z,95
2018-07-17T07:10:11.763Z,95
2018-07-17T07:15:11.317Z,92
2018-07-17T07:20:11.984Z,92
2018-07-17T07:25:11.530Z,82
2018-07-17T07:30:11.822Z,82
2018-07-17T07:35:11.455Z,70
2018-07-17T07:40:12.025Z,70
2018-07-17T07:45:11.457Z,64
2018-07-17T07:50:12.067Z,64
2018-07-17T07:55:11.679Z,64
2018-07-17T08:00:11.890Z,64
2018-07-17T08:05:12.105Z,61
2018-07-17T08:10:11.369Z,61
2018-07-17T08:15:11.251Z,59
2018-07-17T08:20:11.967Z,59
2018-07-17T08:25:11.556Z,58
2018-07-17T08:30:12.066Z,58
2018-07-17T08:35:11.681Z,57
2018-07-17T08:40:12.248Z,57
2018-07-17T08:45:11.722Z,58
2018-07-17T08:50:12.245Z,58
2018-07-17T08:55:11.857Z,56
2018-07-17T09:00:11.429Z,56
2018-07-17T09:05:12.081Z,54
2018-07-17T09:10:12.219Z,54
2018-07-17T09:15:11.934Z,50
2018-07-17T09:20:11.480Z,50
2018-07-17T09:25:12.130Z,51
2018-07-17T09:30:11.645Z,51
2018-07-17T09:35:12.220Z,50
2018-07-17T09:40:11.780Z,50
2018-07-17T09:45:12.341Z,50
2018-07-17T09:50:12.197Z,50
2018-07-17T09:55:11.747Z,51
2018-07-17T10:00:12.265Z,51
2018-07-17T10:05:11.885Z,49
2018-07-17T10:10:12.236Z,49
2018-07-17T10:15:11.830Z,48
2018-07-17T10:20:12.385Z,48
2018-07-17T10:25:12.110Z,49
2018-07-17T10:30:12.170Z,49
2018-07-17T10:35:11.779Z,48
2018-07-17T10:40:11.597Z,48
2018-07-17T10:45:12.347Z,48
2018-07-17T10:50:11.902Z,48
2018-07-17T10:55:11.486Z,47
2018-07-17T11:00:11.983Z,47
2018-07-17T11:05:11.548Z,46
2018-07-17T11:10:12.167Z,46
2018-07-17T11:15:11.795Z,44
2018-07-17T11:20:12.293Z,44
2018-07-17T11:25:12.009Z,43
2018-07-17T11:30:11.689Z,43
2018-07-17T11:35:12.381Z,44
2018-07-17T11:40:11.839Z,44
2018-07-17T11:45:12.313Z,46
2018-07-17T11:50:11.822Z,46
2018-07-17T11:55:12.365Z,46
2018-07-17T12:00:11.940Z,46
2018-07-17T12:05:11.764Z,44
2018-07-17T12:10:11.676Z,44
2018-07-17T12:15:12.270Z,42
2018-07-17T12:20:11.880Z,42
2018-07-17T12:25:12.474Z,42
2018-07-17T12:30:11.956Z,42
2018-07-17T12:35:12.332Z,38
2018-07-17T12:40:12.152Z,38
2018-07-17T12:45:11.638Z,40
2018-07-17T12:50:12.092Z,40
2018-07-17T12:55:12.470Z,41
2018-07-17T13:00:12.052Z,41
2018-07-17T13:05:11.749Z,39
2018-07-17T13:10:12.488Z,39
2018-07-17T13:15:12.508Z,40
2018-07-17T13:20:12.056Z,40
2018-07-17T13:25:12.209Z,39
2018-07-17T13:30:11.711Z,39
2018-07-17T13:35:12.215Z,37
2018-07-17T13:40:11.841Z,37
2018-07-17T13:45:12.352Z,38
2018-07-17T13:50:11.973Z,38
2018-07-17T13:55:12.644Z,37
2018-07-17T14:00:12.335Z,37
2018-07-17T14:05:12.274Z,38
2018-07-17T14:10:11.965Z,38
2018-07-17T14:15:12.054Z,39
2018-07-17T14:20:12.565Z,39
2018-07-17T14:25:12.167Z,39
2018-07-17T14:30:16.917Z,39
2018-07-17T14:35:12.702Z,36
2018-07-17T14:40:12.300Z,36
2018-07-17T14:45:11.807Z,41
2018-07-17T14:50:12.424Z,41
2018-07-17T14:55:11.855Z,42
2018-07-17T15:00:12.395Z,42
2018-07-17T15:05:12.256Z,40
2018-07-17T15:10:12.188Z,40
2018-07-17T15:15:12.638Z,39
2018-07-17T15:20:12.032Z,39
2018-07-17T15:25:11.815Z,39
2018-07-17T15:30:12.274Z,39
2018-07-17T15:35:11.930Z,39
2018-07-17T15:40:12.488Z,39
2018-07-17T15:45:12.010Z,39
2018-07-17T15:50:12.596Z,39
2018-07-17T15:55:12.197Z,38
2018-07-17T16:00:12.655Z,38
2018-07-17T16:05:12.398Z,38
2018-07-17T16:10:11.983Z,38
2018-07-17T16:15:11.979Z,39
2018-07-17T16:20:12.627Z,39
2018-07-17T16:25:12.206Z,38
2018-07-17T16:30:12.816Z,38
2018-07-17T16:35:12.499Z,39
2018-07-17T16:40:12.277Z,39
2018-07-17T16:45:12.758Z,38
2018-07-17T16:50:12.663Z,38
2018-07-17T16:55:12.129Z,38
2018-07-17T17:00:12.676Z,38
2018-07-17T17:05:12.323Z,38
2018-07-17T17:10:12.932Z,38
2018-07-17T17:15:11.984Z,40
2018-07-17T17:20:12.566Z,40
2018-07-17T17:25:12.095Z,40
2018-07-17T17:30:12.563Z,40
2018-07-17T17:35:12.176Z,41
2018-07-17T17:40:12.663Z,41
2018-07-17T17:45:12.281Z,41
2018-07-17T17:50:12.846Z,41
2018-07-17T17:55:12.402Z,40
2018-07-17T18:00:13.763Z,40
2018-07-17T18:05:12.336Z,41
2018-07-17T18:10:12.884Z,41
2018-07-17T18:15:12.249Z,40
2018-07-17T18:20:12.791Z,40
2018-07-17T18:25:12.261Z,40
2018-07-17T18:30:12.794Z,40
2018-07-17T18:35:12.379Z,43
2018-07-17T18:40:12.903Z,43
2018-07-17T18:45:12.495Z,48
2018-07-17T18:50:13.298Z,48
2018-07-17T18:55:12.879Z,50
2018-07-17T19:00:12.322Z,50
2018-07-17T19:05:12.384Z,52
2018-07-17T19:10:12.090Z,52
2018-07-17T19:15:12.662Z,54
2018-07-17T19:20:12.244Z,54
2018-07-17T19:25:12.826Z,53
2018-07-17T19:30:12.363Z,53
2018-07-17T19:35:12.432Z,51
2018-07-17T19:40:12.973Z,51
2018-07-17T19:45:12.540Z,50
2018-07-17T19:50:13.066Z,50
2018-07-17T19:55:12.608Z,49
2018-07-17T20:00:12.156Z,49
2018-07-17T20:05:12.749Z,48
2018-07-17T20:10:12.315Z,48
2018-07-17T20:15:12.623Z,50
2018-07-17T20:20:12.127Z,50
2018-07-17T20:25:12.667Z,59
2018-07-17T20:30:12.390Z,59
2018-07-17T20:35:12.438Z,63
2018-07-17T20:40:13.019Z,63
2018-07-17T20:45:12.544Z,66
2018-07-17T20:50:13.118Z,66
2018-07-17T20:55:12.659Z,67
2018-07-17T21:00:12.265Z,67
2018-07-17T21:05:12.812Z,68
2018-07-17T21:10:12.351Z,68
2018-07-17T21:15:12.568Z,68
2018-07-17T21:20:13.068Z,68
2018-07-17T21:25:12.702Z,69
2018-07-17T21:30:12.322Z,69
2018-07-17T21:35:12.899Z,70
2018-07-17T21:40:12.415Z,70
2018-07-17T21:45:12.989Z,70
2018-07-17T21:50:12.589Z,70
2018-07-17T21:55:12.542Z,71
2018-07-17T22:00:12.379Z,71
2018-07-17T22:05:12.550Z,72
2018-07-17T22:10:13.094Z,72
2018-07-17T22:15:13.024Z,73
2018-07-17T22:20:12.554Z,73
2018-07-17T22:25:13.141Z,74
2018-07-17T22:30:12.701Z,74
2018-07-17T22:35:13.333Z,74
2018-07-17T22:40:12.933Z,74
2018-07-17T22:45:12.441Z,75
2018-07-17T22:50:13.060Z,75
2018-07-17T22:55:12.598Z,75
2018-07-17T23:00:13.157Z,75
2018-07-17T23:05:12.875Z,75
2018-07-17T23:10:12.455Z,75
2018-07-17T23:15:12.591Z,75
2018-07-17T23:20:13.284Z,75
2018-07-17T23:25:12.820Z,75
2018-07-17T23:30:12.396Z,75
2018-07-17T23:35:12.925Z,76
2018-07-17T23:40:12.490Z,76
2018-07-17T23:45:12.963Z,76
2018-07-17T23:50:12.519Z,76
2018-07-17T23:55:13.091Z,76
